createdAt,value
2023-06-30T00:02:49.678Z,100265.72
2023-06-30T00:05:51.804Z,100261.63
2023-06-30T00:08:53.636Z,100257.66
2023-06-30T00:11:56.174Z,100257.91
2023-06-30T00:14:57.880Z,100262.72
2023-06-30T00:17:59.751Z,100257.72
2023-06-30T00:21:01.454Z,100255.00
2023-06-30T00:24:03.741Z,100252.25
2023-06-30T00:27:05.810Z,100254.00
2023-06-30T00:30:08.069Z,100256.31
2023-06-30T00:33:10.189Z,100248.56
2023-06-30T00:36:12.139Z,100242.31
2023-06-30T00:39:13.762Z,100243.75
2023-06-30T00:42:15.642Z,100251.41
2023-06-30T00:45:17.657Z,100244.06
2023-06-30T00:48:19.743Z,100247.00
2023-06-30T00:51:21.486Z,100248.47
2023-06-30T00:54:23.154Z,100248.50
2023-06-30T00:57:24.910Z,100234.84
2023-06-30T01:00:26.936Z,100232.59
2023-06-30T01:03:39.972Z,100236.16
2023-06-30T01:06:55.542Z,100230.28
2023-06-30T01:10:04.254Z,100233.00
2023-06-30T01:13:06.987Z,100228.22
2023-06-30T01:16:10.519Z,100237.06
2023-06-30T01:19:24.080Z,100231.84
2023-06-30T01:22:36.434Z,100239.66
2023-06-30T01:25:38.478Z,100225.88
2023-06-30T01:28:40.717Z,100239.56
2023-06-30T01:31:42.548Z,100231.81
2023-06-30T01:34:46.507Z,100226.97
2023-06-30T01:37:48.755Z,100222.12
2023-06-30T01:40:50.496Z,100224.03
2023-06-30T01:43:52.726Z,100229.69
2023-06-30T01:46:54.505Z,100224.91
2023-06-30T01:49:57.637Z,100226.63
2023-06-30T01:53:00.800Z,100217.16
2023-06-30T01:56:02.726Z,100220.56
2023-06-30T01:59:04.514Z,100217.81
2023-06-30T02:02:06.596Z,100222.25
2023-06-30T02:05:09.094Z,100213.00
2023-06-30T02:08:10.874Z,100212.19
2023-06-30T02:11:12.532Z,100216.34
2023-06-30T02:14:14.514Z,100216.81
2023-06-30T02:17:16.763Z,100212.03
2023-06-30T02:20:18.521Z,100222.31
2023-06-30T02:23:20.244Z,100214.59
2023-06-30T02:26:22.191Z,100216.44
2023-06-30T02:29:23.969Z,100216.06
2023-06-30T02:32:25.734Z,100216.28
2023-06-30T02:35:27.513Z,100212.09
2023-06-30T02:38:29.416Z,100217.56
2023-06-30T02:41:31.221Z,100212.31
2023-06-30T02:44:32.948Z,100205.63
2023-06-30T02:47:34.816Z,100182.25
2023-06-30T02:50:36.864Z,100203.34
2023-06-30T02:53:39.118Z,100206.50
2023-06-30T02:56:40.787Z,100206.69
2023-06-30T02:59:42.465Z,100208.19
2023-06-30T03:02:44.538Z,100209.06
2023-06-30T03:05:47.051Z,100212.63
2023-06-30T03:08:48.998Z,100214.94
2023-06-30T03:11:50.714Z,100215.59
2023-06-30T03:14:52.343Z,100217.69
2023-06-30T03:17:54.021Z,100217.69
2023-06-30T03:20:55.639Z,100225.88
2023-06-30T03:23:57.306Z,100215.59
2023-06-30T03:26:59.336Z,100209.28
2023-06-30T03:30:01.066Z,100214.13
2023-06-30T03:33:02.990Z,100202.75
2023-06-30T03:36:04.949Z,100207.81
2023-06-30T03:39:06.547Z,100211.75
2023-06-30T03:42:08.380Z,100210.25
2023-06-30T03:45:10.909Z,100206.91
2023-06-30T03:48:12.562Z,100201.84
2023-06-30T03:51:14.209Z,100214.81
2023-06-30T03:54:16.487Z,100204.53
2023-06-30T03:57:18.172Z,100204.31
2023-06-30T04:00:20.201Z,100200.97
2023-06-30T04:03:22.485Z,100211.44
2023-06-30T04:06:25.518Z,100217.59
2023-06-30T04:09:27.182Z,100216.53
2023-06-30T04:12:28.829Z,100220.75
2023-06-30T04:15:30.763Z,100217.81
2023-06-30T04:18:32.849Z,100207.00
2023-06-30T04:21:34.845Z,100214.50
2023-06-30T04:24:36.645Z,100214.13
2023-06-30T04:27:38.355Z,100209.94
2023-06-30T04:30:40.278Z,100211.56
2023-06-30T04:33:42.798Z,100206.75
2023-06-30T04:36:45.241Z,100222.66
2023-06-30T04:39:47.202Z,100217.34
2023-06-30T04:42:48.852Z,100208.00
2023-06-30T04:45:51.123Z,100211.78
2023-06-30T04:48:52.803Z,100204.00
2023-06-30T04:51:54.496Z,100202.09
2023-06-30T04:54:56.469Z,100200.41
2023-06-30T04:57:58.107Z,100199.72
2023-06-30T05:00:59.810Z,100202.38
2023-06-30T05:04:01.919Z,100197.63
2023-06-30T05:07:04.191Z,100186.44
2023-06-30T05:10:06.333Z,100191.62
2023-06-30T05:13:08.127Z,100187.09
2023-06-30T05:16:12.850Z,100190.94
2023-06-30T05:19:14.603Z,100190.88
2023-06-30T05:22:16.480Z,100190.81
2023-06-30T05:25:18.204Z,100195.38
2023-06-30T05:28:20.432Z,100197.81
2023-06-30T05:31:22.524Z,100195.06
2023-06-30T05:34:24.445Z,100197.47
2023-06-30T05:37:26.506Z,100189.97
2023-06-30T05:40:28.306Z,100199.63
2023-06-30T05:43:30.006Z,100192.78
2023-06-30T05:46:32.600Z,100195.63
2023-06-30T05:49:34.321Z,100191.34
2023-06-30T05:52:36.067Z,100201.81
2023-06-30T05:55:37.793Z,100205.75
2023-06-30T05:58:39.462Z,100207.50
2023-06-30T06:01:41.430Z,100206.06
2023-06-30T06:04:43.201Z,100197.78
2023-06-30T06:07:45.110Z,100197.81
2023-06-30T06:10:47.123Z,100191.66
2023-06-30T06:13:49.159Z,100204.19
2023-06-30T06:16:51.217Z,100202.78
2023-06-30T06:19:53.600Z,100203.53
2023-06-30T06:22:55.705Z,100206.37
2023-06-30T06:25:57.744Z,100207.34
2023-06-30T06:29:04.238Z,100203.63
2023-06-30T06:32:06.572Z,100199.56
2023-06-30T06:35:08.700Z,100192.16
2023-06-30T06:38:10.670Z,100195.00
2023-06-30T06:41:12.698Z,100197.69
2023-06-30T06:44:14.672Z,100187.94
2023-06-30T06:47:36.569Z,100189.34
2023-06-30T06:50:38.571Z,100184.81
2023-06-30T06:53:40.218Z,100184.66
2023-06-30T06:56:42.484Z,100178.00
2023-06-30T06:59:44.119Z,100182.34
2023-06-30T07:02:46.134Z,100181.94
2023-06-30T07:05:48.145Z,100183.00
2023-06-30T07:08:50.368Z,100179.44
2023-06-30T07:11:52.193Z,100176.44
2023-06-30T07:14:53.957Z,100181.59
2023-06-30T07:17:56.037Z,100186.09
2023-06-30T07:20:57.734Z,100183.84
2023-06-30T07:23:59.733Z,100189.50
2023-06-30T07:27:01.410Z,100179.84
2023-06-30T07:30:04.155Z,100177.72
2023-06-30T07:33:05.901Z,100169.59
2023-06-30T07:36:07.669Z,100177.94
2023-06-30T07:39:09.481Z,100169.31
2023-06-30T07:42:11.228Z,100166.41
2023-06-30T07:45:15.065Z,100174.06
2023-06-30T07:48:16.862Z,100162.13
2023-06-30T07:51:18.628Z,100163.97
2023-06-30T07:54:21.274Z,100156.06
2023-06-30T07:57:27.432Z,100154.19
2023-06-30T08:00:32.388Z,100160.75
2023-06-30T08:03:35.178Z,100153.47
2023-06-30T08:06:37.112Z,100158.16
2023-06-30T08:09:39.051Z,100143.75
2023-06-30T08:12:40.789Z,100155.81
2023-06-30T08:15:45.809Z,100141.50
2023-06-30T08:18:53.369Z,100145.59
2023-06-30T08:21:56.077Z,100113.50
2023-06-30T08:24:57.835Z,100127.88
2023-06-30T08:27:59.835Z,100131.56
2023-06-30T08:31:01.584Z,100130.62
2023-06-30T08:34:03.611Z,100137.03
2023-06-30T08:37:05.850Z,100141.87
2023-06-30T08:40:08.666Z,100130.72
2023-06-30T08:43:12.159Z,100146.25
2023-06-30T08:46:16.536Z,100138.81
2023-06-30T08:49:19.967Z,100128.09
2023-06-30T08:52:23.093Z,100129.31
2023-06-30T08:55:25.217Z,100125.72
2023-06-30T08:58:27.974Z,100123.25
2023-06-30T09:01:30.027Z,100119.16
2023-06-30T09:04:32.815Z,100123.06
2023-06-30T09:07:43.073Z,100114.31
2023-06-30T09:10:48.074Z,100118.06
2023-06-30T09:13:50.224Z,100115.59
2023-06-30T09:16:52.242Z,100108.69
2023-06-30T09:19:53.922Z,100107.91
2023-06-30T09:22:57.419Z,100107.66
2023-06-30T09:25:59.507Z,100098.72
2023-06-30T09:29:02.184Z,100097.59
2023-06-30T09:32:04.670Z,100108.31
2023-06-30T09:35:07.231Z,100087.84
2023-06-30T09:38:11.124Z,100096.28
2023-06-30T09:41:21.579Z,100088.72
2023-06-30T09:44:23.741Z,100087.84
2023-06-30T09:47:27.438Z,100076.47
2023-06-30T09:50:31.853Z,100075.63
2023-06-30T09:53:38.222Z,100066.75
2023-06-30T09:56:41.514Z,100062.50
2023-06-30T09:59:43.634Z,100082.88
2023-06-30T10:02:45.818Z,100073.81
2023-06-30T10:05:48.644Z,100073.88
2023-06-30T10:08:51.645Z,100074.72
2023-06-30T10:11:56.168Z,100080.56
2023-06-30T10:14:58.750Z,100069.47
2023-06-30T10:18:01.683Z,100069.31
2023-06-30T10:21:03.770Z,100068.38
2023-06-30T10:24:06.448Z,100068.31
2023-06-30T10:27:10.715Z,100065.00
2023-06-30T10:30:13.581Z,100068.25
2023-06-30T10:33:15.387Z,100066.69
2023-06-30T10:36:17.794Z,100073.97
2023-06-30T10:39:19.966Z,100068.53
2023-06-30T10:42:21.834Z,100063.50
2023-06-30T10:45:30.219Z,100062.66
2023-06-30T10:48:31.978Z,100069.22
2023-06-30T10:51:36.545Z,100057.09
2023-06-30T10:54:41.020Z,100054.84
2023-06-30T10:57:50.191Z,100054.00
2023-06-30T11:01:03.868Z,100055.50
2023-06-30T11:04:13.131Z,100040.94
2023-06-30T11:07:20.124Z,100041.13
2023-06-30T11:10:26.902Z,100037.16
2023-06-30T11:13:38.484Z,100027.34
2023-06-30T11:17:05.272Z,100025.16
2023-06-30T11:20:14.674Z,100034.41
2023-06-30T11:23:18.559Z,100027.88
2023-06-30T11:26:20.596Z,100019.34
2023-06-30T11:29:23.646Z,100016.44
2023-06-30T11:32:28.659Z,100010.19
2023-06-30T11:35:33.559Z,100001.22
2023-06-30T11:38:40.889Z,100003.53
2023-06-30T11:41:45.196Z,99997.62
2023-06-30T11:44:47.059Z,99993.72
2023-06-30T11:47:49.486Z,99993.87
2023-06-30T11:50:51.280Z,99988.47
2023-06-30T11:53:52.961Z,99988.00
2023-06-30T11:56:54.680Z,99983.50
2023-06-30T11:59:56.302Z,99984.13
2023-06-30T12:02:59.268Z,99976.50
2023-06-30T12:06:01.235Z,99975.75
2023-06-30T12:09:03.765Z,99966.03
2023-06-30T12:12:06.080Z,99963.66
2023-06-30T12:15:11.052Z,99965.56
2023-06-30T12:18:13.080Z,99962.28
2023-06-30T12:21:15.057Z,99953.00
2023-06-30T12:24:18.808Z,99950.34
2023-06-30T12:27:20.540Z,99946.66
2023-06-30T12:30:22.351Z,99948.09
2023-06-30T12:33:24.301Z,99943.75
2023-06-30T12:36:30.166Z,99940.75
2023-06-30T12:39:32.213Z,99951.41
2023-06-30T12:42:34.113Z,99929.12
2023-06-30T12:45:35.902Z,99928.97
2023-06-30T12:48:37.902Z,99934.03
2023-06-30T12:51:39.512Z,99933.28
2023-06-30T12:54:41.509Z,99942.31
2023-06-30T12:57:43.414Z,99929.00
2023-06-30T13:00:45.724Z,99924.22
2023-06-30T13:03:47.610Z,99931.78
2023-06-30T13:06:49.419Z,99925.19
2023-06-30T13:09:51.573Z,99922.56
2023-06-30T13:12:53.401Z,99921.94
2023-06-30T13:15:55.498Z,99907.06
2023-06-30T13:18:57.513Z,99910.94
2023-06-30T13:21:59.278Z,99900.72
2023-06-30T13:25:01.564Z,99909.78
2023-06-30T13:28:03.416Z,99910.66
2023-06-30T13:31:06.764Z,99898.06
2023-06-30T13:34:10.098Z,99892.81
2023-06-30T13:37:12.843Z,99886.53
2023-06-30T13:40:14.791Z,99872.56
2023-06-30T13:43:16.529Z,99876.81
2023-06-30T13:46:18.474Z,99878.69
2023-06-30T13:49:20.197Z,99866.06
2023-06-30T13:52:21.855Z,99873.22
2023-06-30T13:55:23.598Z,99863.28
2023-06-30T13:58:25.326Z,99857.38
2023-06-30T14:01:29.340Z,99855.69
2023-06-30T14:04:32.008Z,99852.75
2023-06-30T14:07:34.138Z,99855.84
2023-06-30T14:10:35.885Z,99838.06
2023-06-30T14:13:37.562Z,99842.84
2023-06-30T14:16:39.442Z,99832.94
2023-06-30T14:19:41.181Z,99830.00
2023-06-30T14:22:42.783Z,99825.87
2023-06-30T14:25:44.966Z,99817.87
2023-06-30T14:28:47.080Z,99815.25
2023-06-30T14:31:48.900Z,99808.34
2023-06-30T14:34:51.074Z,99803.56
2023-06-30T14:37:52.834Z,99800.06
2023-06-30T14:40:54.492Z,99790.38
2023-06-30T14:43:56.810Z,99785.22
2023-06-30T14:46:59.824Z,99799.41
2023-06-30T14:50:01.743Z,99781.78
2023-06-30T14:53:03.451Z,99778.25
2023-06-30T14:56:05.304Z,99781.78
2023-06-30T14:59:06.992Z,99764.94
2023-06-30T15:02:08.764Z,99769.19
2023-06-30T15:05:10.535Z,99753.19
2023-06-30T15:08:12.840Z,99759.50
2023-06-30T15:11:14.474Z,99756.22
2023-06-30T15:14:16.206Z,99754.53
2023-06-30T15:17:17.935Z,99744.19
2023-06-30T15:20:19.980Z,99738.72
2023-06-30T15:23:21.585Z,99733.47
2023-06-30T15:26:23.223Z,99734.16
2023-06-30T15:29:24.947Z,99739.88
2023-06-30T15:32:26.822Z,99731.75
2023-06-30T15:35:28.646Z,99734.66
2023-06-30T15:38:30.358Z,99727.88
2023-06-30T15:41:32.197Z,99728.47
2023-06-30T15:44:33.904Z,99725.19
2023-06-30T15:47:36.127Z,99722.34
2023-06-30T15:50:37.802Z,99716.38
2023-06-30T15:53:39.540Z,99715.38
2023-06-30T15:56:41.564Z,99714.84
2023-06-30T15:59:43.265Z,99708.03
2023-06-30T16:02:44.993Z,99704.59
2023-06-30T16:05:46.935Z,99707.16
2023-06-30T16:08:49.116Z,99704.44
2023-06-30T16:11:50.747Z,99695.28
2023-06-30T16:14:52.457Z,99692.19
2023-06-30T16:17:54.335Z,99693.38
2023-06-30T16:20:56.258Z,99697.97
2023-06-30T16:23:58.500Z,99699.75
2023-06-30T16:27:00.240Z,99690.94
2023-06-30T16:30:19.795Z,99695.91
2023-06-30T16:33:21.624Z,99690.69
2023-06-30T16:36:23.443Z,99683.84
2023-06-30T16:39:25.468Z,99676.97
2023-06-30T16:42:27.122Z,99685.84
2023-06-30T16:45:29.076Z,99681.50
2023-06-30T16:48:30.811Z,99681.28
2023-06-30T16:51:32.872Z,99679.69
2023-06-30T16:54:34.518Z,99674.56
2023-06-30T16:57:36.178Z,99671.94
2023-06-30T17:00:38.147Z,99678.88
2023-06-30T17:03:39.938Z,99680.63
2023-06-30T17:06:41.985Z,99679.56
2023-06-30T17:09:44.229Z,99677.66
2023-06-30T17:12:45.924Z,99683.22
2023-06-30T17:15:47.996Z,99680.78
2023-06-30T17:18:50.013Z,99677.56
2023-06-30T17:21:51.712Z,99682.53
2023-06-30T17:24:56.040Z,99681.50
2023-06-30T17:28:00.129Z,99677.91
2023-06-30T17:31:01.939Z,99679.63
2023-06-30T17:34:03.681Z,99689.63
2023-06-30T17:37:09.869Z,99679.44
2023-06-30T17:40:12.512Z,99686.66
2023-06-30T17:43:14.182Z,99682.53
2023-06-30T17:46:16.004Z,99683.09
2023-06-30T17:49:31.622Z,99683.94
2023-06-30T17:52:33.657Z,99685.88
2023-06-30T17:55:35.353Z,99688.69
2023-06-30T17:58:37.923Z,99679.88
2023-06-30T18:01:40.596Z,99681.00
2023-06-30T18:04:42.758Z,99677.44
2023-06-30T18:07:44.616Z,99675.00
2023-06-30T18:10:49.102Z,99669.78
2023-06-30T18:13:56.263Z,99670.94
2023-06-30T18:16:59.419Z,99667.06
2023-06-30T18:20:01.184Z,99668.22
2023-06-30T18:23:02.916Z,99670.69
2023-06-30T18:26:04.948Z,99675.16
2023-06-30T18:29:06.716Z,99680.63
2023-06-30T18:32:08.735Z,99678.75
2023-06-30T18:35:10.706Z,99681.50
2023-06-30T18:38:12.710Z,99679.31
2023-06-30T18:41:14.750Z,99691.22
2023-06-30T18:44:16.535Z,99689.84
2023-06-30T18:47:18.822Z,99687.91
2023-06-30T18:50:20.660Z,99687.94
2023-06-30T18:53:22.715Z,99699.50
2023-06-30T18:56:25.314Z,99693.19
2023-06-30T18:59:27.385Z,99700.62
2023-06-30T19:02:30.401Z,99708.66
2023-06-30T19:05:32.473Z,99709.47
2023-06-30T19:08:34.306Z,99714.72
2023-06-30T19:11:36.554Z,99714.72
2023-06-30T19:14:38.255Z,99719.66
2023-06-30T19:17:40.914Z,99721.03
2023-06-30T19:20:42.926Z,99720.78
2023-06-30T19:23:44.718Z,99727.91
2023-06-30T19:26:46.495Z,99736.19
2023-06-30T19:29:48.793Z,99738.69
2023-06-30T19:32:50.893Z,99731.50
2023-06-30T19:35:52.596Z,99736.75
2023-06-30T19:38:55.124Z,99726.56
2023-06-30T19:41:56.879Z,99725.44
2023-06-30T19:44:58.901Z,99725.16
2023-06-30T19:48:00.686Z,99716.63
2023-06-30T19:51:02.516Z,99719.34
2023-06-30T19:54:04.615Z,99725.41
2023-06-30T19:57:06.639Z,99720.97
2023-06-30T20:00:11.954Z,99720.72
2023-06-30T20:03:13.825Z,99726.75
2023-06-30T20:06:17.872Z,99722.31
2023-06-30T20:09:19.815Z,99726.72
2023-06-30T20:12:21.464Z,99723.94
2023-06-30T20:15:23.148Z,99723.09
2023-06-30T20:18:24.805Z,99728.56
2023-06-30T20:21:26.607Z,99731.06
2023-06-30T20:24:28.285Z,99731.56
2023-06-30T20:27:30.015Z,99726.34
2023-06-30T20:30:42.873Z,99723.03
2023-06-30T20:33:45.557Z,99728.25
2023-06-30T20:36:47.565Z,99729.31
2023-06-30T20:39:49.273Z,99729.88
2023-06-30T20:42:51.192Z,99728.50
2023-06-30T20:45:52.852Z,99726.00
2023-06-30T20:48:54.622Z,99725.44
2023-06-30T20:51:57.677Z,99730.94
2023-06-30T20:54:59.836Z,99730.88
2023-06-30T20:58:12.961Z,99727.28
2023-06-30T21:01:14.670Z,99735.75
2023-06-30T21:04:16.695Z,99729.97
2023-06-30T21:07:18.504Z,99737.06
2023-06-30T21:10:20.793Z,99739.28
2023-06-30T21:13:22.493Z,99741.47
2023-06-30T21:16:24.234Z,99733.16
2023-06-30T21:19:25.986Z,99740.59
2023-06-30T21:22:28.103Z,99743.06
2023-06-30T21:25:30.165Z,99738.06
2023-06-30T21:28:31.953Z,99734.75
2023-06-30T21:31:33.949Z,99730.88
2023-06-30T21:34:35.732Z,99732.75
2023-06-30T21:37:37.483Z,99721.75
2023-06-30T21:40:39.144Z,99730.78
2023-06-30T21:43:41.193Z,99720.31
2023-06-30T21:46:42.960Z,99721.41
2023-06-30T21:49:45.007Z,99721.41
2023-06-30T21:52:47.170Z,99723.28
2023-06-30T21:55:48.879Z,99716.06
2023-06-30T21:58:51.007Z,99722.34
2023-06-30T22:01:53.105Z,99720.13
2023-06-30T22:04:54.875Z,99720.66
2023-06-30T22:07:56.529Z,99726.66
2023-06-30T22:10:58.541Z,99721.13
2023-06-30T22:14:00.169Z,99724.91
2023-06-30T22:17:02.223Z,99725.72
2023-06-30T22:20:05.101Z,99725.91
2023-06-30T22:23:07.168Z,99727.19
2023-06-30T22:26:08.809Z,99722.25
2023-06-30T22:29:10.801Z,99727.66
2023-06-30T22:32:12.905Z,99727.37
2023-06-30T22:35:14.642Z,99720.97
2023-06-30T22:38:16.586Z,99713.25
2023-06-30T22:41:18.342Z,99720.94
2023-06-30T22:44:20.010Z,99718.47
2023-06-30T22:47:22.703Z,99714.56
2023-06-30T22:50:24.446Z,99718.34
2023-06-30T22:53:26.255Z,99713.09
2023-06-30T22:56:27.931Z,99714.94
2023-06-30T22:59:29.582Z,99712.16
2023-06-30T23:02:31.262Z,99707.09
2023-06-30T23:05:32.938Z,99704.63
2023-06-30T23:08:34.626Z,99710.59
2023-06-30T23:11:37.145Z,99713.03
2023-06-30T23:14:38.870Z,99709.13
2023-06-30T23:17:40.710Z,99709.09
2023-06-30T23:20:42.537Z,99699.72
2023-06-30T23:23:45.458Z,99704.59
2023-06-30T23:27:04.152Z,99698.00
2023-06-30T23:30:11.498Z,99696.59
2023-06-30T23:33:13.520Z,99701.47
2023-06-30T23:36:16.303Z,99703.09
2023-06-30T23:39:18.095Z,99708.25
2023-06-30T23:42:20.764Z,99699.69
2023-06-30T23:45:22.554Z,99701.03
2023-06-30T23:48:24.148Z,99704.53
2023-06-30T23:51:25.825Z,99704.75
2023-06-30T23:54:27.578Z,99708.84
2023-06-30T23:57:29.236Z,99708.53
